Time;durP1;ratioP1;P1;durP2;ratioP2;P2;SDS_P1;SDS_P2;PMS_P1;PMS_P2;Temp;Humidity;BMP_temperature;BMP_pressure;BME280_temperature;BME280_humidity;BME280_pressure;Samples;Min_cycle;Max_cycle;Signal;HPM_P1;HPM_P2
2021/08/10 00:01:16;;;;;;;8.10;4.32;;;18.30;99.90;;;;;;5053312;28;20139;-75
2021/08/10 00:03:42;;;;;;;9.82;4.75;;;18.30;99.90;;;;;;5053600;28;20551;-75
2021/08/10 00:06:08;;;;;;;7.38;5.28;;;18.20;99.90;;;;;;5058482;28;20563;-76
2021/08/10 00:08:34;;;;;;;7.18;4.80;;;18.20;99.90;;;;;;5049785;28;20025;-76
2021/08/10 00:10:59;;;;;;;7.07;4.43;;;18.20;99.90;;;;;;5051363;28;20025;-77
2021/08/10 00:13:26;;;;;;;9.23;5.10;;;18.20;99.90;;;;;;5058613;28;20635;-76
2021/08/10 00:15:52;;;;;;;11.52;4.20;;;18.30;99.90;;;;;;5054411;28;20108;-76
2021/08/10 00:18:18;;;;;;;7.90;4.72;;;18.20;99.90;;;;;;5054651;28;20407;-76
2021/08/10 00:20:44;;;;;;;9.93;5.55;;;18.20;99.90;;;;;;5056684;28;20024;-75
2021/08/10 00:23:10;;;;;;;8.77;4.35;;;18.20;99.90;;;;;;5062608;28;20063;-75
2021/08/10 00:25:35;;;;;;;7.03;4.75;;;18.20;99.90;;;;;;5044093;28;20040;-73
2021/08/10 00:28:01;;;;;;;7.78;4.63;;;18.20;99.90;;;;;;5045046;28;20104;-76
2021/08/10 00:30:27;;;;;;;10.20;5.50;;;18.10;99.90;;;;;;5038514;28;20131;-74
2021/08/10 00:32:53;;;;;;;9.77;4.90;;;18.10;99.90;;;;;;5064032;28;20024;-76
2021/08/10 00:35:19;;;;;;;8.13;4.75;;;18.10;99.90;;;;;;5061166;28;20029;-76
2021/08/10 00:37:46;;;;;;;9.65;4.60;;;18.20;99.90;;;;;;5044736;28;20021;-76
2021/08/10 00:40:14;;;;;;;8.45;4.90;;;18.20;99.90;;;;;;5053102;28;20025;-76
2021/08/10 00:42:40;;;;;;;9.55;5.60;;;18.30;99.90;;;;;;5054660;28;20020;-73
2021/08/10 00:45:07;;;;;;;8.70;5.57;;;18.20;99.90;;;;;;5048603;28;20041;-75
2021/08/10 00:47:32;;;;;;;9.18;5.03;;;18.20;99.90;;;;;;5059377;28;20078;-75
2021/08/10 00:49:58;;;;;;;9.45;5.15;;;18.20;99.90;;;;;;5055670;28;20065;-73
2021/08/10 00:52:24;;;;;;;7.78;4.78;;;18.20;99.90;;;;;;5053711;28;20473;-75
2021/08/10 00:54:50;;;;;;;8.25;5.47;;;18.20;99.90;;;;;;5056368;28;20461;-73
2021/08/10 00:57:16;;;;;;;11.75;4.75;;;18.20;99.90;;;;;;5051055;28;20027;-76
2021/08/10 00:59:41;;;;;;;12.63;5.60;;;18.30;99.90;;;;;;5051110;28;20539;-73
2021/08/10 01:02:08;;;;;;;9.18;5.07;;;18.20;99.90;;;;;;5056171;28;20029;-74
2021/08/10 01:04:35;;;;;;;9.27;4.80;;;18.30;99.90;;;;;;5053401;28;20154;-75
2021/08/10 01:07:11;;;;;;;8.90;4.68;;;18.30;99.90;;;;;;5057534;28;20032;-75
2021/08/10 01:09:42;;;;;;;5.13;4.57;;;18.40;99.90;;;;;;5032448;28;20037;-75
2021/08/10 01:12:24;;;;;;;7.97;4.57;;;18.40;99.90;;;;;;5028746;28;20417;-74
2021/08/10 01:15:13;;;;;;;10.18;4.72;;;18.40;99.90;;;;;;5057324;28;20032;-74
2021/08/10 01:17:49;;;;;;;6.57;4.38;;;18.40;99.90;;;;;;5062769;28;20510;-75
2021/08/10 01:20:45;;;;;;;8.80;4.22;;;18.50;99.90;;;;;;5057243;28;20024;-75
2021/08/10 01:23:14;;;;;;;7.63;4.15;;;18.40;99.90;;;;;;5046577;28;20037;-74
2021/08/10 01:26:02;;;;;;;9.35;4.40;;;18.30;99.90;;;;;;5044040;28;20033;-73
2021/08/10 01:28:46;;;;;;;7.57;4.22;;;18.30;99.90;;;;;;5053391;28;20035;-74
2021/08/10 01:31:16;;;;;;;9.88;5.03;;;18.20;99.90;;;;;;5046674;28;20033;-74
2021/08/10 01:33:45;;;;;;;8.02;4.70;;;18.30;99.90;;;;;;5048159;28;20059;-76
2021/08/10 01:36:13;;;;;;;8.77;4.70;;;18.20;99.90;;;;;;5023713;28;20028;-74
2021/08/10 01:38:40;;;;;;;8.43;4.78;;;18.10;99.90;;;;;;5053416;28;20029;-74
2021/08/10 01:41:06;;;;;;;6.13;4.13;;;18.10;99.90;;;;;;5055110;28;20063;-74
2021/08/10 01:43:33;;;;;;;8.00;4.93;;;17.90;99.90;;;;;;5028011;28;20060;-74
2021/08/10 01:45:59;;;;;;;8.82;5.00;;;17.90;99.90;;;;;;5028534;28;20076;-74
2021/08/10 01:48:26;;;;;;;10.88;5.35;;;17.70;99.90;;;;;;5053740;28;20025;-75
2021/08/10 01:50:53;;;;;;;10.40;5.43;;;17.70;99.90;;;;;;5064701;28;20056;-74
2021/08/10 01:53:19;;;;;;;8.90;4.90;;;17.70;99.90;;;;;;5052697;28;20029;-73
2021/08/10 01:55:45;;;;;;;7.93;4.95;;;17.60;99.90;;;;;;5062374;28;20354;-75
2021/08/10 01:58:12;;;;;;;6.97;4.57;;;17.60;99.90;;;;;;5032739;28;20030;-74
2021/08/10 02:00:42;;;;;;;9.35;4.28;;;17.60;99.90;;;;;;5048714;28;20104;-74
2021/08/10 02:03:10;;;;;;;6.80;4.80;;;17.60;99.90;;;;;;5058955;28;20362;-75
2021/08/10 02:05:37;;;;;;;7.30;4.13;;;17.50;99.90;;;;;;5055372;28;20397;-73
2021/08/10 02:08:03;;;;;;;8.02;3.78;;;17.40;99.90;;;;;;5045013;28;20024;-74
2021/08/10 02:10:30;;;;;;;7.97;4.25;;;17.50;99.90;;;;;;5053389;28;20041;-74
2021/08/10 02:12:57;;;;;;;6.85;4.20;;;17.70;99.90;;;;;;5046194;28;20500;-74
2021/08/10 02:15:24;;;;;;;7.50;3.95;;;17.70;99.90;;;;;;5054435;28;20025;-74
2021/08/10 02:17:51;;;;;;;11.70;5.10;;;17.80;99.90;;;;;;5055349;28;20028;-74
2021/08/10 02:20:17;;;;;;;5.93;4.38;;;17.90;99.90;;;;;;5052615;28;20354;-74
2021/08/10 02:22:45;;;;;;;9.15;4.43;;;17.80;99.90;;;;;;5062533;28;20035;-75
2021/08/10 02:25:13;;;;;;;7.32;4.90;;;17.80;99.90;;;;;;5039040;28;20032;-74
2021/08/10 02:28:01;;;;;;;6.25;4.35;;;17.90;99.90;;;;;;5058988;28;20033;-74
2021/08/10 02:30:30;;;;;;;9.25;5.00;;;17.80;99.90;;;;;;5057984;28;20106;-74
2021/08/10 02:32:58;;;;;;;9.65;5.10;;;17.90;99.90;;;;;;5061665;28;20024;-74
2021/08/10 02:35:27;;;;;;;8.32;4.78;;;17.90;99.90;;;;;;5053534;28;20405;-74
2021/08/10 02:37:58;;;;;;;7.25;4.32;;;17.90;99.90;;;;;;5036774;28;20025;-74
2021/08/10 02:40:26;;;;;;;8.00;4.90;;;17.90;99.90;;;;;;5054106;28;20400;-74
2021/08/10 02:42:55;;;;;;;7.15;4.88;;;17.90;99.90;;;;;;5059082;28;20024;-74
2021/08/10 02:45:21;;;;;;;6.75;4.95;;;17.90;99.90;;;;;;5048708;28;20064;-74
2021/08/10 02:47:56;;;;;;;6.00;4.75;;;17.90;99.90;;;;;;5043483;28;20470;-74
2021/08/10 02:50:24;;;;;;;5.97;4.55;;;18.00;99.90;;;;;;5046972;28;20021;-74
2021/08/10 02:52:50;;;;;;;9.10;4.95;;;17.90;99.90;;;;;;5052533;28;20101;-75
2021/08/10 02:55:19;;;;;;;9.98;4.45;;;18.00;99.90;;;;;;5051727;28;20440;-75
2021/08/10 02:58:03;;;;;;;9.13;4.57;;;18.00;99.90;;;;;;5050041;28;20033;-75
2021/08/10 03:00:34;;;;;;;8.35;4.78;;;18.00;99.90;;;;;;5056537;28;20090;-74
2021/08/10 03:03:12;;;;;;;7.57;4.28;;;18.00;99.90;;;;;;5048469;28;20503;-74
2021/08/10 03:05:41;;;;;;;7.80;4.93;;;18.00;99.90;;;;;;5047582;28;20037;-74
2021/08/10 03:08:10;;;;;;;7.07;4.43;;;18.00;99.90;;;;;;5055410;28;20021;-74
2021/08/10 03:10:39;;;;;;;9.60;5.18;;;18.00;99.90;;;;;;5042632;28;20037;-73
2021/08/10 03:13:08;;;;;;;6.97;4.78;;;18.00;99.90;;;;;;5035572;28;20028;-74
2021/08/10 03:15:38;;;;;;;10.75;5.00;;;17.90;99.90;;;;;;5059178;28;20037;-74
2021/08/10 03:18:09;;;;;;;7.80;5.25;;;17.90;99.90;;;;;;5052818;28;20492;-73
2021/08/10 03:20:41;;;;;;;6.88;4.50;;;17.90;99.90;;;;;;5046035;28;20016;-74
2021/08/10 03:23:08;;;;;;;8.00;4.63;;;17.90;99.90;;;;;;5046150;28;20465;-74
2021/08/10 03:25:34;;;;;;;9.38;6.10;;;17.90;99.90;;;;;;5055881;28;20116;-74
2021/08/10 03:28:01;;;;;;;8.00;5.13;;;17.90;99.90;;;;;;5050602;28;20087;-74
2021/08/10 03:30:28;;;;;;;8.35;5.60;;;17.80;99.90;;;;;;5054103;28;20027;-73
2021/08/10 03:32:55;;;;;;;10.73;4.85;;;17.80;99.90;;;;;;5056477;28;20021;-73
2021/08/10 03:35:21;;;;;;;9.13;5.18;;;17.80;99.90;;;;;;5049562;28;20477;-73
2021/08/10 03:37:46;;;;;;;7.10;5.60;;;17.80;99.90;;;;;;5031470;28;20056;-73
2021/08/10 03:40:13;;;;;;;9.18;5.30;;;17.80;99.90;;;;;;5050596;28;20013;-73
2021/08/10 03:42:40;;;;;;;8.50;5.55;;;17.80;99.90;;;;;;5048430;28;20495;-74
2021/08/10 03:45:07;;;;;;;6.80;4.65;;;17.70;99.90;;;;;;5047827;28;20045;-74
2021/08/10 03:47:33;;;;;;;6.00;4.25;;;17.70;99.90;;;;;;5055454;28;20026;-74
2021/08/10 03:50:00;;;;;;;6.78;4.82;;;17.70;99.90;;;;;;5058427;28;20032;-73
2021/08/10 03:52:26;;;;;;;7.20;4.45;;;17.60;99.90;;;;;;5049563;28;20400;-73
2021/08/10 03:54:51;;;;;;;6.20;4.32;;;17.60;99.90;;;;;;5052657;28;20138;-74
2021/08/10 03:57:20;;;;;;;6.63;4.88;;;17.60;99.90;;;;;;5053044;28;20497;-73
2021/08/10 03:59:48;;;;;;;8.07;5.07;;;17.60;99.90;;;;;;5053254;28;20442;-74
2021/08/10 04:02:16;;;;;;;7.25;4.90;;;17.60;99.90;;;;;;5043315;28;20067;-74
2021/08/10 04:04:44;;;;;;;6.28;4.57;;;17.60;99.90;;;;;;5053007;28;20044;-74
2021/08/10 04:07:10;;;;;;;15.77;5.65;;;17.50;99.90;;;;;;5055633;28;20126;-74
2021/08/10 04:09:38;;;;;;;7.13;4.75;;;17.50;99.90;;;;;;5051805;28;20484;-74
2021/08/10 04:12:08;;;;;;;8.75;4.78;;;17.50;99.90;;;;;;5064050;28;20138;-74
2021/08/10 04:14:34;;;;;;;9.07;5.30;;;17.50;99.90;;;;;;5048444;28;20032;-75
2021/08/10 04:17:02;;;;;;;7.75;4.90;;;17.50;99.90;;;;;;5058932;28;20029;-73
2021/08/10 04:19:30;;;;;;;12.07;5.85;;;17.50;99.90;;;;;;5063927;28;20370;-75
2021/08/10 04:21:56;;;;;;;10.25;4.90;;;17.50;99.90;;;;;;5048430;28;20472;-75
2021/08/10 04:24:22;;;;;;;9.65;6.03;;;17.40;99.90;;;;;;5055512;28;20439;-75
2021/08/10 04:26:49;;;;;;;8.35;5.65;;;17.50;99.90;;;;;;5061208;28;20477;-75
2021/08/10 04:29:15;;;;;;;8.75;5.20;;;17.40;99.90;;;;;;5059788;28;20016;-75
2021/08/10 04:31:42;;;;;;;7.82;5.10;;;17.50;99.90;;;;;;5057501;28;20496;-75
2021/08/10 04:34:08;;;;;;;10.85;5.68;;;17.40;99.90;;;;;;5054572;28;20112;-75
2021/08/10 04:36:33;;;;;;;8.50;5.57;;;17.50;99.90;;;;;;5048543;28;20100;-75
2021/08/10 04:39:00;;;;;;;8.02;5.97;;;17.40;99.90;;;;;;5052623;28;20086;-75
2021/08/10 04:41:26;;;;;;;10.90;5.93;;;17.40;99.90;;;;;;5058994;28;20025;-76
2021/08/10 04:43:52;;;;;;;11.23;5.68;;;17.40;99.90;;;;;;5047990;28;20461;-75
2021/08/10 04:46:19;;;;;;;7.45;5.13;;;17.40;99.90;;;;;;5056487;28;20028;-73
2021/08/10 04:48:46;;;;;;;11.30;5.65;;;17.40;99.90;;;;;;5058006;28;20067;-75
2021/08/10 04:51:13;;;;;;;7.43;5.07;;;17.40;99.90;;;;;;5056256;28;20020;-75
2021/08/10 04:53:39;;;;;;;8.40;5.93;;;17.40;99.90;;;;;;5058834;28;20226;-75
2021/08/10 04:56:05;;;;;;;8.02;5.13;;;17.40;99.90;;;;;;5057708;28;20025;-75
2021/08/10 04:58:32;;;;;;;10.15;5.05;;;17.40;99.90;;;;;;5050769;28;20056;-74
2021/08/10 05:00:57;;;;;;;11.15;5.80;;;17.40;99.90;;;;;;5047576;28;20025;-75
2021/08/10 05:03:23;;;;;;;8.18;5.47;;;17.30;99.90;;;;;;5054173;28;20071;-75
2021/08/10 05:05:49;;;;;;;8.73;5.65;;;17.30;99.90;;;;;;5055550;28;20051;-75
2021/08/10 05:08:15;;;;;;;8.05;6.07;;;17.40;99.90;;;;;;5052462;28;20021;-76
2021/08/10 05:10:44;;;;;;;10.60;5.90;;;17.40;99.90;;;;;;5059822;28;20078;-75
2021/08/10 05:13:10;;;;;;;8.10;6.28;;;17.40;99.90;;;;;;5050977;28;20025;-74
2021/08/10 05:15:36;;;;;;;10.02;5.90;;;17.40;99.90;;;;;;5051566;28;20037;-74
2021/08/10 05:18:02;;;;;;;7.40;5.47;;;17.40;99.90;;;;;;5053414;28;20024;-75
2021/08/10 05:20:28;;;;;;;8.10;5.63;;;17.30;99.90;;;;;;5057923;28;20032;-74
2021/08/10 05:22:54;;;;;;;9.77;6.05;;;17.30;99.90;;;;;;5053593;28;20037;-74
2021/08/10 05:25:20;;;;;;;8.52;5.82;;;17.40;99.90;;;;;;5055144;28;20534;-75
2021/08/10 05:27:45;;;;;;;8.88;6.43;;;17.30;99.90;;;;;;5055157;28;20013;-75
2021/08/10 05:30:12;;;;;;;8.40;5.45;;;17.40;99.90;;;;;;5050556;28;20036;-74
2021/08/10 05:32:37;;;;;;;9.35;5.10;;;17.40;99.90;;;;;;5032896;28;20108;-73
2021/08/10 05:35:03;;;;;;;10.35;5.57;;;17.30;99.90;;;;;;5060300;28;20451;-74
2021/08/10 05:37:29;;;;;;;7.85;5.45;;;17.40;99.90;;;;;;5053571;28;20028;-75
2021/08/10 05:39:55;;;;;;;7.32;4.80;;;17.50;99.90;;;;;;5046202;28;20102;-74
2021/08/10 05:42:20;;;;;;;10.93;6.20;;;17.60;99.90;;;;;;5053331;28;20053;-75
2021/08/10 05:44:46;;;;;;;9.85;5.25;;;17.50;99.90;;;;;;5052269;28;20033;-74
2021/08/10 05:47:12;;;;;;;12.00;5.72;;;17.60;99.90;;;;;;5046178;28;20026;-75
2021/08/10 05:49:37;;;;;;;9.07;6.22;;;17.60;99.90;;;;;;5040492;28;20028;-75
2021/08/10 05:52:03;;;;;;;10.48;6.32;;;17.70;99.90;;;;;;5023197;28;20148;-75
2021/08/10 05:54:29;;;;;;;19.27;6.28;;;17.70;99.90;;;;;;5054274;28;20103;-75
2021/08/10 05:56:55;;;;;;;16.75;6.68;;;17.70;99.90;;;;;;5039338;28;20012;-74
2021/08/10 05:59:21;;;;;;;18.73;6.80;;;17.70;99.90;;;;;;5053642;28;20096;-75
2021/08/10 06:01:47;;;;;;;15.02;6.88;;;17.80;99.90;;;;;;5053408;28;20552;-77
2021/08/10 06:04:13;;;;;;;18.08;7.10;;;17.70;99.90;;;;;;5061409;28;20033;-76
2021/08/10 06:06:39;;;;;;;9.45;5.68;;;17.70;99.90;;;;;;5026344;28;20032;-82
2021/08/10 06:09:05;;;;;;;9.55;6.07;;;17.70;99.90;;;;;;5046901;28;20098;-78
2021/08/10 06:11:31;;;;;;;10.68;6.70;;;17.80;99.90;;;;;;5055917;28;20483;-77
2021/08/10 06:13:57;;;;;;;11.77;6.75;;;17.70;99.90;;;;;;5060116;28;20063;-75
2021/08/10 06:16:23;;;;;;;8.95;6.57;;;17.80;99.90;;;;;;5052799;28;20152;-75
2021/08/10 06:18:50;;;;;;;12.20;6.20;;;17.80;99.90;;;;;;5051442;28;20040;-75
2021/08/10 06:21:15;;;;;;;13.90;6.72;;;17.80;99.90;;;;;;5044579;28;20585;-75
2021/08/10 06:23:41;;;;;;;12.20;6.55;;;17.80;99.90;;;;;;5052285;28;20108;-75
2021/08/10 06:26:07;;;;;;;12.02;6.95;;;17.90;99.90;;;;;;5032686;28;20052;-75
2021/08/10 06:28:32;;;;;;;15.15;8.48;;;18.00;99.90;;;;;;5038780;28;20032;-75
2021/08/10 06:30:58;;;;;;;13.35;7.55;;;18.10;99.90;;;;;;5027891;28;20547;-76
2021/08/10 06:33:24;;;;;;;11.73;7.57;;;18.10;99.90;;;;;;5037441;28;20036;-74
2021/08/10 06:35:49;;;;;;;11.90;7.18;;;18.00;99.90;;;;;;5064658;28;20021;-75
2021/08/10 06:38:15;;;;;;;12.40;7.28;;;18.00;99.90;;;;;;5050398;28;20032;-74
2021/08/10 06:40:41;;;;;;;12.80;7.68;;;18.10;99.90;;;;;;5055056;28;20070;-74
2021/08/10 06:43:09;;;;;;;17.88;8.32;;;18.10;99.90;;;;;;5059513;28;20024;-74
2021/08/10 06:45:35;;;;;;;13.18;7.53;;;18.10;99.90;;;;;;5050625;28;20508;-74
2021/08/10 06:48:01;;;;;;;10.68;7.25;;;18.10;99.90;;;;;;5053596;28;20043;-74
2021/08/10 06:50:27;;;;;;;11.88;7.93;;;18.00;99.90;;;;;;5057977;28;20025;-74
2021/08/10 06:52:53;;;;;;;13.85;7.63;;;18.10;99.90;;;;;;5047737;28;20033;-74
2021/08/10 06:55:19;;;;;;;10.27;7.45;;;18.10;99.90;;;;;;5044993;28;20031;-75
2021/08/10 06:57:45;;;;;;;22.95;8.50;;;18.20;99.90;;;;;;5047510;28;20032;-75
2021/08/10 07:00:11;;;;;;;12.82;7.72;;;18.30;99.90;;;;;;5050187;28;20051;-74
2021/08/10 07:02:36;;;;;;;11.60;6.95;;;18.20;99.90;;;;;;5058859;28;20446;-74
2021/08/10 07:05:03;;;;;;;13.85;7.97;;;18.20;99.90;;;;;;5046545;28;20120;-74
2021/08/10 07:07:29;;;;;;;14.27;8.15;;;18.30;99.90;;;;;;5051406;28;20154;-75
2021/08/10 07:09:54;;;;;;;13.20;8.02;;;18.30;99.90;;;;;;5050838;28;20469;-75
2021/08/10 07:12:20;;;;;;;12.38;7.72;;;18.40;99.90;;;;;;5049623;28;20104;-74
2021/08/10 07:14:46;;;;;;;10.95;7.32;;;18.50;99.90;;;;;;5050990;28;20025;-74
2021/08/10 07:17:11;;;;;;;12.40;7.40;;;18.60;99.90;;;;;;5049587;28;20061;-75
2021/08/10 07:19:37;;;;;;;13.65;7.78;;;18.70;99.90;;;;;;5053304;28;20057;-75
2021/08/10 07:22:03;;;;;;;10.13;7.47;;;18.70;99.90;;;;;;5061576;28;20388;-74
2021/08/10 07:24:28;;;;;;;12.02;7.40;;;18.60;99.90;;;;;;5050740;28;20401;-75
2021/08/10 07:26:54;;;;;;;14.82;8.70;;;18.50;99.90;;;;;;5051494;28;20021;-75
2021/08/10 07:29:20;;;;;;;12.43;7.38;;;18.60;99.90;;;;;;5058118;28;20468;-74
2021/08/10 07:31:46;;;;;;;11.10;7.20;;;18.60;99.90;;;;;;5051679;28;20020;-73
2021/08/10 07:34:12;;;;;;;12.05;7.32;;;18.70;99.90;;;;;;5057225;28;20191;-74
2021/08/10 07:36:38;;;;;;;12.88;6.85;;;18.80;99.90;;;;;;5050806;28;20025;-74
2021/08/10 07:39:05;;;;;;;12.18;7.28;;;18.70;99.90;;;;;;5035847;28;20025;-74
2021/08/10 07:41:31;;;;;;;13.77;6.90;;;18.80;99.90;;;;;;5048918;28;20131;-74
2021/08/10 07:43:57;;;;;;;11.63;7.13;;;18.80;99.90;;;;;;5047981;28;20026;-74
2021/08/10 07:46:24;;;;;;;10.55;6.57;;;18.90;99.90;;;;;;5049237;28;20039;-74
2021/08/10 07:48:50;;;;;;;11.02;6.78;;;18.90;99.90;;;;;;5049106;28;20029;-74
2021/08/10 07:51:17;;;;;;;9.40;6.28;;;18.90;99.90;;;;;;5054496;28;20017;-74
2021/08/10 07:53:42;;;;;;;11.57;6.30;;;18.90;99.90;;;;;;5052209;28;20148;-74
2021/08/10 07:56:08;;;;;;;12.77;6.28;;;18.90;99.90;;;;;;5058318;28;20437;-75
2021/08/10 07:58:34;;;;;;;10.82;6.30;;;18.90;99.90;;;;;;5059130;28;20439;-74
2021/08/10 08:01:00;;;;;;;16.45;6.70;;;18.80;99.90;;;;;;5058949;28;20082;-75
2021/08/10 08:03:26;;;;;;;14.95;6.97;;;18.90;99.90;;;;;;5034314;28;20055;-75
2021/08/10 08:05:51;;;;;;;12.45;6.53;;;19.10;99.90;;;;;;5053235;28;20484;-74
2021/08/10 08:08:17;;;;;;;11.57;6.50;;;19.20;99.90;;;;;;5054146;28;20425;-73
2021/08/10 08:10:43;;;;;;;12.60;6.85;;;19.20;99.90;;;;;;5056133;28;20033;-75
2021/08/10 08:13:09;;;;;;;11.65;6.38;;;19.30;99.90;;;;;;5052117;28;20033;-74
2021/08/10 08:15:34;;;;;;;11.10;7.05;;;19.30;99.90;;;;;;5060144;28;20021;-72
2021/08/10 08:18:01;;;;;;;9.75;6.22;;;19.30;99.90;;;;;;5054619;28;20041;-74
2021/08/10 08:20:26;;;;;;;9.63;6.75;;;19.40;99.90;;;;;;5055867;28;20021;-73
2021/08/10 08:22:52;;;;;;;11.90;7.00;;;19.50;99.90;;;;;;5030441;28;20469;-74
2021/08/10 08:25:18;;;;;;;8.30;6.20;;;19.50;99.90;;;;;;5055044;28;20362;-73
2021/08/10 08:27:44;;;;;;;12.13;6.72;;;19.40;99.90;;;;;;5066400;28;20056;-73
2021/08/10 08:30:11;;;;;;;9.35;5.47;;;19.40;99.90;;;;;;5060371;28;20086;-73
2021/08/10 08:32:37;;;;;;;7.75;5.43;;;19.50;99.90;;;;;;5050431;28;20100;-74
2021/08/10 08:35:03;;;;;;;8.18;5.28;;;19.60;99.90;;;;;;5054202;28;20067;-74
2021/08/10 08:37:29;;;;;;;11.07;5.63;;;19.70;99.90;;;;;;5051315;28;20120;-74
2021/08/10 08:39:54;;;;;;;10.18;5.65;;;19.80;99.90;;;;;;5049777;28;20471;-73
2021/08/10 08:42:22;;;;;;;7.82;5.53;;;19.80;99.90;;;;;;5053275;28;20067;-74
2021/08/10 08:44:48;;;;;;;9.18;5.13;;;19.80;99.90;;;;;;5051702;28;20060;-75
2021/08/10 08:47:18;;;;;;;8.57;5.50;;;19.70;99.90;;;;;;5031763;28;20037;-74
2021/08/10 08:49:47;;;;;;;9.70;5.45;;;19.80;99.90;;;;;;5052817;28;20029;-74
2021/08/10 08:52:15;;;;;;;6.70;5.00;;;19.90;99.90;;;;;;5054511;28;20057;-74
2021/08/10 08:54:41;;;;;;;7.88;4.93;;;20.00;99.90;;;;;;5047253;28;20029;-75
2021/08/10 08:57:07;;;;;;;10.73;4.72;;;20.20;99.90;;;;;;5057404;28;20024;-75
2021/08/10 08:59:34;;;;;;;8.40;4.80;;;20.30;99.90;;;;;;5055048;28;20023;-75
2021/08/10 09:02:00;;;;;;;9.82;5.30;;;20.30;99.90;;;;;;5059970;28;20037;-75
2021/08/10 09:04:26;;;;;;;9.60;4.95;;;20.50;99.90;;;;;;5062813;28;20048;-75
2021/08/10 09:06:55;;;;;;;8.57;4.53;;;20.60;99.90;;;;;;5050409;28;20029;-75
2021/08/10 09:09:24;;;;;;;7.28;4.53;;;20.50;99.90;;;;;;5062488;28;20021;-74
2021/08/10 09:11:54;;;;;;;6.97;4.38;;;20.60;99.90;;;;;;5045901;28;20044;-74
2021/08/10 09:14:21;;;;;;;7.53;4.22;;;20.70;99.90;;;;;;5060388;28;20021;-75
2021/08/10 09:17:02;;;;;;;6.50;4.07;;;20.80;99.90;;;;;;5051446;28;20057;-75
2021/08/10 09:19:48;;;;;;;5.25;4.40;;;20.80;99.90;;;;;;5051628;28;20109;-75
2021/08/10 09:22:33;;;;;;;9.40;4.20;;;20.80;99.90;;;;;;5035533;28;20040;-74
2021/08/10 09:25:03;;;;;;;7.82;4.90;;;20.90;99.90;;;;;;5054199;28;20495;-74
2021/08/10 09:27:30;;;;;;;10.82;4.55;;;20.90;99.90;;;;;;5051999;28;20021;-75
2021/08/10 09:29:57;;;;;;;6.50;4.60;;;21.20;99.90;;;;;;5048332;28;20025;-75
2021/08/10 09:32:23;;;;;;;10.30;4.97;;;21.40;99.90;;;;;;5053557;28;20104;-75
2021/08/10 09:35:17;;;;;;;8.77;4.82;;;21.50;99.90;;;;;;5049305;28;20032;-75
2021/08/10 09:38:20;;;;;;;5.78;4.28;;;21.80;99.90;;;;;;5046639;28;20044;-75
2021/08/10 09:40:51;;;;;;;7.72;5.00;;;22.00;99.90;;;;;;5022713;28;20037;-75
2021/08/10 09:43:34;;;;;;;8.20;4.55;;;22.10;99.90;;;;;;5053112;28;20111;-74
2021/08/10 09:46:29;;;;;;;5.55;3.88;;;22.10;99.90;;;;;;5032956;28;20392;-74
2021/08/10 09:48:56;;;;;;;6.55;4.88;;;22.10;99.90;;;;;;5043236;28;20037;-74
2021/08/10 09:51:24;;;;;;;8.05;4.20;;;22.30;99.90;;;;;;5051855;28;20025;-74
2021/08/10 09:54:12;;;;;;;6.88;4.30;;;22.30;99.90;;;;;;5052266;28;20503;-74
2021/08/10 09:56:43;;;;;;;6.05;3.72;;;22.50;99.90;;;;;;5041467;28;20021;-75
2021/08/10 09:59:09;;;;;;;8.82;4.50;;;22.60;99.90;;;;;;5055938;28;20493;-74
2021/08/10 10:01:43;;;;;;;9.45;4.25;;;22.80;99.90;;;;;;5049572;28;20075;-74
2021/08/10 10:04:11;;;;;;;6.10;3.55;;;23.00;99.90;;;;;;5047975;28;20160;-74
2021/08/10 10:06:37;;;;;;;4.18;3.70;;;23.10;99.90;;;;;;5046721;28;20116;-74
2021/08/10 10:09:04;;;;;;;8.30;4.18;;;23.20;99.90;;;;;;5054492;28;20147;-75
2021/08/10 10:11:31;;;;;;;4.50;3.75;;;23.10;99.90;;;;;;5054489;28;20036;-74
2021/08/10 10:13:59;;;;;;;4.78;3.60;;;22.80;99.90;;;;;;5052129;28;20028;-75
2021/08/10 10:16:27;;;;;;;6.47;3.50;;;22.80;99.90;;;;;;5047485;28;20381;-75
2021/08/10 10:18:54;;;;;;;5.63;3.83;;;22.70;99.90;;;;;;5054774;28;20104;-76
2021/08/10 10:21:23;;;;;;;6.13;3.50;;;22.60;99.90;;;;;;5057471;28;20419;-75
2021/08/10 10:23:54;;;;;;;5.35;3.42;;;22.40;99.90;;;;;;5051728;28;20025;-74
2021/08/10 10:26:20;;;;;;;7.60;3.70;;;22.30;99.90;;;;;;5037471;28;20075;-75
2021/08/10 10:28:48;;;;;;;5.65;4.28;;;22.20;99.90;;;;;;5052225;28;20021;-75
2021/08/10 10:31:15;;;;;;;5.70;4.03;;;22.20;99.90;;;;;;5056869;28;20043;-74
2021/08/10 10:33:41;;;;;;;4.00;3.60;;;22.20;99.90;;;;;;5045444;28;20032;-74
2021/08/10 10:36:08;;;;;;;5.43;4.10;;;22.10;99.90;;;;;;5055927;28;20029;-74
2021/08/10 10:38:34;;;;;;;4.45;3.88;;;22.10;99.90;;;;;;5059313;28;20060;-74
2021/08/10 10:41:00;;;;;;;5.22;4.13;;;22.00;99.90;;;;;;5052712;28;20433;-75
2021/08/10 10:43:27;;;;;;;5.40;3.88;;;21.90;99.90;;;;;;5048044;28;20099;-76
2021/08/10 10:45:54;;;;;;;6.70;4.53;;;21.90;99.90;;;;;;5051188;28;20039;-75
2021/08/10 10:48:22;;;;;;;4.75;3.50;;;22.00;99.90;;;;;;5060777;28;20484;-75
2021/08/10 10:51:11;;;;;;;6.18;4.20;;;21.90;99.90;;;;;;5049270;28;20104;-75
2021/08/10 10:53:38;;;;;;;5.28;3.97;;;21.90;99.90;;;;;;5059966;28;20017;-75
2021/08/10 10:56:24;;;;;;;4.93;3.55;;;21.90;99.90;;;;;;5038294;28;20017;-75
2021/08/10 10:58:50;;;;;;;5.43;3.95;;;21.90;99.90;;;;;;5056676;28;20021;-75
2021/08/10 11:01:17;;;;;;;9.70;4.82;;;21.90;99.90;;;;;;5057946;28;20024;-76
2021/08/10 11:04:06;;;;;;;9.77;3.88;;;22.10;99.90;;;;;;5063066;28;20463;-75
2021/08/10 11:06:45;;;;;;;5.68;3.67;;;22.10;99.90;;;;;;5049873;28;20041;-77
2021/08/10 11:09:37;;;;;;;4.68;3.45;;;22.10;99.90;;;;;;5051383;28;20469;-75
2021/08/10 11:12:04;;;;;;;11.25;3.92;;;22.20;99.90;;;;;;5056576;28;20107;-75
2021/08/10 11:14:38;;;;;;;4.68;3.78;;;22.10;99.90;;;;;;5052462;28;20535;-75
2021/08/10 11:17:14;;;;;;;3.80;3.30;;;22.10;99.90;;;;;;5059651;28;20511;-75
2021/08/10 11:19:42;;;;;;;7.55;4.00;;;22.10;99.90;;;;;;5051146;28;20452;-76
2021/08/10 11:22:17;;;;;;;4.43;4.03;;;22.20;99.90;;;;;;5053669;28;20021;-75
2021/08/10 11:24:52;;;;;;;7.38;3.47;;;22.20;99.90;;;;;;5044124;28;20033;-75
2021/08/10 11:27:30;;;;;;;4.85;3.78;;;22.30;99.90;;;;;;5055285;28;20045;-75
2021/08/10 11:29:57;;;;;;;5.20;3.90;;;22.40;99.90;;;;;;5045351;28;20080;-75
2021/08/10 11:32:46;;;;;;;4.72;3.45;;;22.50;99.90;;;;;;5050556;28;20047;-75
2021/08/10 11:35:33;;;;;;;6.13;4.22;;;22.40;99.90;;;;;;5055192;28;20380;-75
2021/08/10 11:38:04;;;;;;;5.30;3.75;;;22.30;99.90;;;;;;5049038;28;20103;-76
2021/08/10 11:40:36;;;;;;;4.35;3.53;;;22.40;99.90;;;;;;5055318;28;20028;-75
2021/08/10 11:43:03;;;;;;;6.15;3.33;;;22.50;99.90;;;;;;5056291;28;20024;-75
2021/08/10 11:45:36;;;;;;;7.38;4.32;;;22.60;99.90;;;;;;5055406;28;20515;-75
2021/08/10 11:48:02;;;;;;;4.57;3.50;;;22.60;99.90;;;;;;5046558;28;20443;-75
2021/08/10 11:50:33;;;;;;;4.80;3.65;;;22.50;99.90;;;;;;5023287;28;20025;-75
2021/08/10 11:53:02;;;;;;;4.95;3.67;;;22.50;99.90;;;;;;5046918;28;20025;-75
2021/08/10 11:55:32;;;;;;;4.93;3.78;;;22.50;99.90;;;;;;5052717;28;20033;-75
2021/08/10 11:58:00;;;;;;;3.53;3.22;;;22.60;99.90;;;;;;5057967;28;20021;-75
2021/08/10 12:00:28;;;;;;;3.78;3.17;;;22.50;99.90;;;;;;5053809;28;20488;-75
2021/08/10 12:02:54;;;;;;;4.68;3.42;;;22.60;99.90;;;;;;5059036;28;20025;-75
2021/08/10 12:05:20;;;;;;;5.90;2.88;;;22.90;99.90;;;;;;5048236;28;20040;-75
2021/08/10 12:07:49;;;;;;;4.72;3.13;;;23.20;99.90;;;;;;5055890;28;20052;-75
2021/08/10 12:10:36;;;;;;;4.40;2.90;;;23.40;99.90;;;;;;5053626;28;20025;-74
2021/08/10 12:13:18;;;;;;;4.50;2.78;;;23.40;99.90;;;;;;5053801;28;20029;-75
2021/08/10 12:15:45;;;;;;;7.35;3.10;;;23.40;99.90;;;;;;5045877;28;20129;-75
2021/08/10 12:18:13;;;;;;;4.78;2.92;;;23.30;99.90;;;;;;5052034;28;20501;-74
2021/08/10 12:20:39;;;;;;;3.60;2.60;;;23.20;99.90;;;;;;5051779;28;20481;-75
2021/08/10 12:23:08;;;;;;;4.20;2.97;;;23.20;99.90;;;;;;5054451;28;20385;-75
2021/08/10 12:25:34;;;;;;;7.13;3.42;;;23.30;99.90;;;;;;5046968;28;20481;-75
2021/08/10 12:28:04;;;;;;;3.28;2.60;;;23.30;99.90;;;;;;5042443;28;20366;-75
2021/08/10 12:30:32;;;;;;;4.30;2.60;;;23.40;99.90;;;;;;5052459;28;20067;-75
2021/08/10 12:33:20;;;;;;;2.58;1.98;;;23.40;99.90;;;;;;5045954;28;20025;-75
2021/08/10 12:36:04;;;;;;;3.10;2.80;;;23.40;99.90;;;;;;5048465;28;20048;-75
2021/08/10 12:38:30;;;;;;;3.13;2.35;;;23.30;99.90;;;;;;5056403;28;20492;-75
2021/08/10 12:40:57;;;;;;;4.65;3.22;;;23.20;99.90;;;;;;5054665;28;20380;-74
2021/08/10 12:43:24;;;;;;;5.68;3.08;;;23.30;99.90;;;;;;5058949;28;20017;-74
2021/08/10 12:45:49;;;;;;;3.95;2.88;;;23.30;99.90;;;;;;5037716;28;20040;-75
2021/08/10 12:48:27;;;;;;;4.45;2.67;;;23.30;99.90;;;;;;5054031;28;20034;-75
2021/08/10 12:50:55;;;;;;;3.95;2.63;;;23.20;99.90;;;;;;5055187;28;20365;-75